Time;durP1;ratioP1;P1;durP2;ratioP2;P2;SDS_P1;SDS_P2;PMS_P1;PMS_P2;Temp;Humidity;BMP_temperature;BMP_pressure;BME280_temperature;BME280_humidity;BME280_pressure;Samples;Min_cycle;Max_cycle;Signal;HPM_P1;HPM_P2
2020/12/02 00:00:23;;;;;;;14.23;9.02;;;4.60;99.90;;;;;;5089153;28;20048;-49
2020/12/02 00:03:03;;;;;;;13.90;8.90;;;4.50;99.90;;;;;;5087450;28;20048;-53
2020/12/02 00:05:32;;;;;;;14.73;8.43;;;4.50;99.90;;;;;;5084806;28;20052;-49
2020/12/02 00:08:11;;;;;;;16.25;10.52;;;4.50;99.90;;;;;;5088528;28;20048;-49
2020/12/02 00:10:38;;;;;;;18.45;10.57;;;4.60;99.90;;;;;;5089392;28;20052;-49
2020/12/02 00:13:27;;;;;;;21.90;11.88;;;4.60;99.90;;;;;;5089328;28;20106;-49
2020/12/02 00:15:53;;;;;;;20.48;11.43;;;4.50;99.90;;;;;;5075987;28;20048;-50
2020/12/02 00:18:20;;;;;;;20.20;11.13;;;4.50;99.90;;;;;;5084516;28;20476;-49
2020/12/02 00:20:47;;;;;;;27.23;13.68;;;4.50;99.90;;;;;;5091799;28;20063;-50
2020/12/02 00:23:14;;;;;;;32.97;17.00;;;4.50;99.90;;;;;;5088687;28;20044;-49
2020/12/02 00:25:41;;;;;;;41.75;19.20;;;4.50;99.90;;;;;;5090888;28;20114;-49
2020/12/02 00:28:11;;;;;;;28.77;15.38;;;4.40;99.90;;;;;;5086465;28;20055;-49
2020/12/02 00:30:38;;;;;;;22.05;13.45;;;4.40;99.90;;;;;;5083311;28;20632;-49
2020/12/02 00:33:17;;;;;;;23.20;14.18;;;4.40;99.90;;;;;;5090820;28;20043;-49
2020/12/02 00:35:44;;;;;;;25.33;14.55;;;4.40;99.90;;;;;;5086592;28;20075;-50
2020/12/02 00:38:13;;;;;;;25.42;15.23;;;4.40;99.90;;;;;;5087876;28;20106;-49
2020/12/02 00:40:47;;;;;;;17.67;11.00;;;4.40;99.90;;;;;;5091126;28;20464;-49
2020/12/02 00:43:26;;;;;;;24.83;12.45;;;4.40;99.90;;;;;;5084512;28;20428;-49
2020/12/02 00:46:02;;;;;;;23.33;12.20;;;4.40;99.90;;;;;;5076261;28;20481;-49
2020/12/02 00:48:31;;;;;;;14.27;9.40;;;4.50;99.90;;;;;;5085032;28;20101;-49
2020/12/02 00:50:59;;;;;;;11.27;6.70;;;4.50;99.90;;;;;;5078722;28;20045;-50
2020/12/02 00:53:32;;;;;;;8.95;5.88;;;4.50;99.90;;;;;;5088077;28;20082;-49
2020/12/02 00:55:58;;;;;;;9.52;6.70;;;4.50;99.90;;;;;;5085489;28;20492;-51
2020/12/02 00:58:44;;;;;;;8.15;4.20;;;4.50;99.90;;;;;;5093267;28;20097;-49
2020/12/02 01:01:13;;;;;;;12.32;6.07;;;4.60;99.90;;;;;;5084529;28;20469;-49
2020/12/02 01:03:40;;;;;;;8.98;6.05;;;4.60;99.90;;;;;;5084519;28;20048;-49
2020/12/02 01:06:10;;;;;;;10.40;5.53;;;4.60;99.90;;;;;;5083138;28;20045;-49
2020/12/02 01:08:39;;;;;;;7.18;5.57;;;4.60;99.90;;;;;;5084816;28;20489;-49
2020/12/02 01:11:26;;;;;;;11.15;6.13;;;4.60;99.90;;;;;;5091040;28;20527;-49
2020/12/02 01:13:59;;;;;;;7.32;5.25;;;4.60;99.90;;;;;;5086000;28;20052;-49
2020/12/02 01:16:34;;;;;;;10.48;6.65;;;4.60;99.90;;;;;;5085000;28;20469;-49
2020/12/02 01:19:00;;;;;;;13.30;5.40;;;4.60;99.90;;;;;;5084876;28;21009;-49
2020/12/02 01:21:50;;;;;;;3.67;2.30;;;4.60;99.90;;;;;;5076560;28;20431;-49
2020/12/02 01:24:22;;;;;;;12.35;2.75;;;4.70;99.90;;;;;;5066604;28;20048;-49
2020/12/02 01:27:16;;;;;;;3.00;1.83;;;4.70;99.90;;;;;;5063227;28;20818;-49
2020/12/02 01:29:44;;;;;;;4.40;1.67;;;4.70;99.90;;;;;;5053021;28;20052;-49
2020/12/02 01:32:12;;;;;;;1.50;0.80;;;4.70;99.90;;;;;;5060281;28;20105;-49
2020/12/02 01:34:38;;;;;;;1.70;1.00;;;4.80;99.90;;;;;;5065929;28;20060;-49
2020/12/02 01:37:26;;;;;;;1.77;0.82;;;4.80;99.90;;;;;;5065023;28;20055;-49
2020/12/02 01:40:16;;;;;;;2.80;1.63;;;4.80;99.90;;;;;;5063497;28;20098;-49
2020/12/02 01:43:01;;;;;;;1.38;1.27;;;4.80;99.90;;;;;;5052705;28;20049;-49
2020/12/02 01:45:30;;;;;;;4.15;2.28;;;4.80;99.90;;;;;;5054795;28;20049;-49
2020/12/02 01:48:18;;;;;;;2.83;2.03;;;4.80;99.90;;;;;;5061035;28;20053;-49
2020/12/02 01:50:46;;;;;;;3.88;2.95;;;4.80;99.90;;;;;;5068391;28;20053;-49
2020/12/02 01:53:56;;;;;;;5.15;3.55;;;4.80;99.90;;;;;;5062744;28;20522;-49
2020/12/02 01:57:09;;;;;;;6.80;3.70;;;4.70;99.90;;;;;;5055665;28;20049;-49
2020/12/02 01:59:46;;;;;;;3.47;2.43;;;4.70;99.90;;;;;;4989149;28;20089;-50
2020/12/02 02:02:13;;;;;;;3.78;3.40;;;4.70;99.90;;;;;;4999401;28;20343;-49
2020/12/02 02:05:06;;;;;;;3.55;1.52;;;4.70;99.90;;;;;;5005699;28;20053;-50
2020/12/02 02:07:33;;;;;;;0.83;0.70;;;4.70;99.90;;;;;;4998260;28;20050;-49
2020/12/02 02:10:08;;;;;;;1.27;0.85;;;4.80;99.90;;;;;;5001517;28;20046;-49
2020/12/02 02:12:46;;;;;;;1.70;1.05;;;4.90;99.90;;;;;;4990267;28;20049;-49
2020/12/02 02:15:38;;;;;;;1.00;0.77;;;4.80;99.90;;;;;;4997226;28;20581;-49
2020/12/02 02:18:14;;;;;;;1.00;0.80;;;4.90;99.90;;;;;;4996190;28;20046;-49
2020/12/02 02:20:45;;;;;;;1.60;0.75;;;5.00;99.90;;;;;;5007798;28;20046;-49
2020/12/02 02:23:14;;;;;;;2.35;0.90;;;5.00;99.90;;;;;;5000337;28;20562;-49
2020/12/02 02:25:53;;;;;;;1.20;0.70;;;5.00;99.90;;;;;;5007726;28;20497;-50
2020/12/02 02:28:21;;;;;;;1.95;0.65;;;5.00;99.90;;;;;;4997426;28;20501;-50
2020/12/02 02:30:48;;;;;;;1.73;1.25;;;5.00;99.90;;;;;;5059173;28;20055;-49
2020/12/02 02:33:14;;;;;;;0.50;0.40;;;5.00;99.90;;;;;;5083587;28;20044;-49
2020/12/02 02:35:41;;;;;;;1.52;0.70;;;5.40;99.90;;;;;;5085344;28;20067;-49
2020/12/02 02:38:08;;;;;;;0.80;0.65;;;5.40;99.90;;;;;;5090568;28;20048;-49
2020/12/02 02:40:35;;;;;;;2.40;0.85;;;5.30;99.90;;;;;;5080984;28;20059;-49
2020/12/02 02:43:03;;;;;;;1.70;1.00;;;5.20;99.90;;;;;;5074677;28;20496;-49
2020/12/02 02:45:30;;;;;;;1.38;1.00;;;5.10;99.90;;;;;;5087717;28;20059;-49
2020/12/02 02:47:58;;;;;;;1.20;1.00;;;5.10;99.90;;;;;;5086792;28;20496;-50
2020/12/02 02:50:26;;;;;;;3.33;1.50;;;5.00;99.90;;;;;;5088080;28;20052;-50
2020/12/02 02:52:53;;;;;;;11.25;2.65;;;5.00;99.90;;;;;;5082808;28;20431;-51
2020/12/02 02:55:24;;;;;;;2.58;1.52;;;5.00;99.90;;;;;;5089618;28;20048;-50
2020/12/02 02:57:51;;;;;;;1.45;0.90;;;5.00;99.90;;;;;;5087349;28;20453;-50
2020/12/02 03:00:21;;;;;;;1.92;0.80;;;5.00;99.90;;;;;;5087465;28;20106;-50
2020/12/02 03:02:48;;;;;;;1.58;0.65;;;5.10;99.90;;;;;;5089271;28;20052;-50
2020/12/02 03:05:16;;;;;;;0.70;0.70;;;5.10;99.90;;;;;;5088372;28;20048;-50
2020/12/02 03:07:43;;;;;;;1.45;0.63;;;5.10;99.90;;;;;;5084189;28;20053;-50
2020/12/02 03:10:14;;;;;;;1.00;0.60;;;5.10;99.90;;;;;;5085260;28;20052;-51
2020/12/02 03:12:44;;;;;;;0.90;0.50;;;5.10;99.90;;;;;;5087726;28;20048;-51
2020/12/02 03:15:11;;;;;;;3.28;0.60;;;5.10;99.90;;;;;;5081477;28;20041;-50
2020/12/02 03:17:38;;;;;;;0.82;0.55;;;5.10;99.90;;;;;;5078046;28;20101;-51
2020/12/02 03:20:32;;;;;;;0.40;0.35;;;5.10;99.90;;;;;;5085628;28;20093;-54
2020/12/02 03:22:58;;;;;;;;;;;5.20;99.90;;;;;;5081550;28;20055;-50
2020/12/02 03:25:30;;;;;;;0.50;0.30;;;5.20;99.90;;;;;;5069648;28;19920;-50
2020/12/02 03:27:57;;;;;;;1.25;0.40;;;5.30;99.90;;;;;;5079855;28;20393;-49
2020/12/02 03:30:23;;;;;;;0.70;0.40;;;5.30;99.90;;;;;;5072729;28;20176;-50
2020/12/02 03:32:50;;;;;;;0.50;0.40;;;5.30;99.90;;;;;;5087209;28;20762;-50
2020/12/02 03:35:17;;;;;;;2.58;0.70;;;5.30;99.90;;;;;;5087003;28;20036;-50
2020/12/02 03:37:43;;;;;;;3.03;1.60;;;5.20;99.90;;;;;;5087524;28;20044;-49
2020/12/02 03:40:10;;;;;;;6.05;1.60;;;5.10;99.90;;;;;;5078893;28;20489;-50
2020/12/02 03:42:37;;;;;;;6.00;2.22;;;5.10;99.90;;;;;;5087680;28;20044;-50
2020/12/02 03:45:06;;;;;;;3.97;1.92;;;5.00;99.90;;;;;;5085176;28;20040;-50
2020/12/02 03:47:32;;;;;;;3.30;2.00;;;4.90;99.90;;;;;;5079570;28;20180;-49
2020/12/02 03:49:58;;;;;;;5.65;2.08;;;4.90;99.90;;;;;;5084057;28;20480;-50
2020/12/02 03:52:25;;;;;;;11.30;2.10;;;4.90;99.90;;;;;;5084350;28;20047;-50
2020/12/02 03:54:52;;;;;;;1.48;1.23;;;4.90;99.90;;;;;;5087573;28;20048;-49
2020/12/02 03:57:18;;;;;;;2.75;1.20;;;4.90;99.90;;;;;;5079616;28;20036;-50
2020/12/02 03:59:44;;;;;;;2.95;0.77;;;4.90;99.90;;;;;;5076359;28;20447;-49
2020/12/02 04:02:11;;;;;;;2.70;1.45;;;4.90;99.90;;;;;;5083456;28;21028;-49
2020/12/02 04:04:37;;;;;;;2.00;0.98;;;4.90;99.90;;;;;;5084840;28;20051;-52
2020/12/02 04:07:04;;;;;;;1.00;0.68;;;4.90;99.90;;;;;;5085139;28;20048;-49
2020/12/02 04:09:30;;;;;;;1.58;0.70;;;5.00;99.90;;;;;;5083497;28;20051;-50
2020/12/02 04:11:56;;;;;;;1.20;0.45;;;4.90;99.90;;;;;;5084593;28;20117;-49
2020/12/02 04:14:23;;;;;;;0.68;0.40;;;5.00;99.90;;;;;;5081242;28;20053;-49
2020/12/02 04:16:49;;;;;;;0.35;0.30;;;5.10;99.90;;;;;;5088493;28;20059;-51
2020/12/02 04:19:16;;;;;;;1.50;0.40;;;5.10;99.90;;;;;;5082133;28;20454;-50
2020/12/02 04:21:42;;;;;;;2.13;0.50;;;5.10;99.90;;;;;;5086852;28;20464;-53
2020/12/02 04:24:09;;;;;;;1.73;0.77;;;5.10;99.90;;;;;;5079573;28;20090;-49
2020/12/02 04:26:36;;;;;;;8.23;3.33;;;5.10;99.90;;;;;;5078836;28;20062;-50
2020/12/02 04:29:04;;;;;;;4.90;1.48;;;5.10;99.90;;;;;;5084983;28;20044;-50
2020/12/02 04:31:31;;;;;;;14.35;1.30;;;5.10;99.90;;;;;;5084235;28;20056;-49
2020/12/02 04:33:57;;;;;;;2.50;0.85;;;5.10;99.90;;;;;;5081381;28;20166;-49
2020/12/02 04:36:25;;;;;;;0.80;0.70;;;5.10;99.90;;;;;;5083322;28;20052;-53
2020/12/02 04:38:51;;;;;;;1.08;0.70;;;5.00;99.90;;;;;;5090336;28;20447;-50
2020/12/02 04:41:18;;;;;;;1.45;0.80;;;5.00;99.90;;;;;;5090356;28;20430;-50
2020/12/02 04:43:53;;;;;;;2.22;0.90;;;5.00;99.90;;;;;;5088642;28;20055;-50
2020/12/02 04:46:25;;;;;;;1.70;0.77;;;4.90;99.90;;;;;;5088522;28;20041;-50
2020/12/02 04:48:59;;;;;;;0.90;0.60;;;4.90;99.90;;;;;;5083587;28;20064;-49
2020/12/02 04:51:28;;;;;;;2.45;0.70;;;4.90;99.90;;;;;;5082491;28;20101;-50
2020/12/02 04:53:58;;;;;;;1.20;0.60;;;4.90;99.90;;;;;;5086366;28;20086;-51
2020/12/02 04:56:27;;;;;;;0.88;0.43;;;5.00;99.90;;;;;;5087578;28;20058;-49
2020/12/02 04:58:55;;;;;;;0.82;0.50;;;5.00;99.90;;;;;;5086328;28;20094;-49
2020/12/02 05:01:32;;;;;;;1.80;0.50;;;5.00;99.90;;;;;;5080003;28;20059;-49
2020/12/02 05:04:16;;;;;;;1.75;0.50;;;5.00;99.90;;;;;;5074909;28;20048;-50
2020/12/02 05:07:05;;;;;;;0.43;0.40;;;5.00;99.90;;;;;;5085379;28;20051;-50
2020/12/02 05:09:50;;;;;;;0.95;0.30;;;5.00;99.90;;;;;;5082885;28;20051;-50
2020/12/02 05:12:27;;;;;;;0.85;0.38;;;5.10;99.90;;;;;;5076933;28;20130;-50
2020/12/02 05:15:08;;;;;;;2.60;0.75;;;5.10;99.90;;;;;;5084512;28;20044;-51
2020/12/02 05:17:35;;;;;;;2.05;0.95;;;5.10;99.90;;;;;;5086178;28;20090;-50
2020/12/02 05:20:16;;;;;;;1.00;0.63;;;5.10;99.90;;;;;;5087857;28;20051;-50
2020/12/02 05:22:46;;;;;;;4.43;0.57;;;5.10;99.90;;;;;;5077603;28;20097;-49
2020/12/02 05:25:24;;;;;;;0.68;0.47;;;5.10;99.90;;;;;;5088322;28;20052;-50
2020/12/02 05:28:01;;;;;;;1.50;0.60;;;5.10;99.90;;;;;;5082871;28;20056;-50
2020/12/02 05:30:31;;;;;;;1.80;0.90;;;5.10;99.90;;;;;;5088689;28;20114;-51
2020/12/02 05:33:10;;;;;;;1.15;0.80;;;5.10;99.90;;;;;;5086876;28;20105;-51
2020/12/02 05:35:38;;;;;;;1.85;0.40;;;5.20;99.90;;;;;;5086434;28;20051;-50
2020/12/02 05:38:08;;;;;;;0.47;0.40;;;5.20;99.90;;;;;;5080757;28;20048;-50
2020/12/02 05:40:37;;;;;;;1.08;0.60;;;5.30;99.90;;;;;;5079925;28;20044;-50
2020/12/02 05:43:22;;;;;;;0.90;0.50;;;5.40;99.90;;;;;;5090698;28;20048;-50
2020/12/02 05:45:52;;;;;;;1.42;0.30;;;5.40;99.90;;;;;;5079669;28;20056;-49
2020/12/02 05:48:24;;;;;;;2.35;0.70;;;5.40;99.90;;;;;;5080111;28;20473;-50
2020/12/02 05:50:54;;;;;;;1.70;1.10;;;5.50;99.90;;;;;;5078494;28;20831;-49
2020/12/02 05:53:33;;;;;;;116.65;6.30;;;5.40;99.90;;;;;;5082985;28;20052;-49
2020/12/02 05:56:05;;;;;;;4.70;0.85;;;5.30;99.90;;;;;;5085719;28;20052;-49
2020/12/02 05:58:32;;;;;;;1.33;0.90;;;5.20;99.90;;;;;;5086646;28;20048;-50
2020/12/02 06:00:59;;;;;;;2.40;0.55;;;5.20;99.90;;;;;;5083683;28;20093;-49
2020/12/02 06:03:35;;;;;;;2.28;0.50;;;5.30;99.90;;;;;;5087480;28;20113;-50
2020/12/02 06:06:05;;;;;;;4.97;0.60;;;5.60;99.90;;;;;;5086557;28;20571;-50
2020/12/02 06:08:51;;;;;;;5.28;0.50;;;5.80;99.90;;;;;;5091421;28;20059;-51
2020/12/02 06:11:18;;;;;;;4.97;0.50;;;6.00;99.90;;;;;;5085178;28;20553;-50
2020/12/02 06:13:46;;;;;;;5.95;0.40;;;6.20;99.90;;;;;;5083209;28;20517;-51
2020/12/02 06:16:40;;;;;;;8.30;0.50;;;6.20;99.90;;;;;;5078165;28;20056;-50
2020/12/02 06:19:12;;;;;;;2.85;0.30;;;6.20;99.90;;;;;;5079743;28;20473;-50
2020/12/02 06:21:40;;;;;;;2.05;0.40;;;6.10;99.90;;;;;;5082445;28;20051;-50
2020/12/02 06:24:10;;;;;;;1.00;0.30;;;6.10;99.90;;;;;;5087034;28;20067;-49
2020/12/02 06:26:44;;;;;;;2.40;0.30;;;6.10;99.90;;;;;;5088152;28;20036;-49
2020/12/02 06:29:36;;;;;;;0.65;0.20;;;6.10;99.90;;;;;;5086257;28;20377;-48
2020/12/02 06:32:24;;;;;;;1.40;0.20;;;6.20;99.90;;;;;;5086568;28;20408;-49
2020/12/02 06:35:07;;;;;;;2.63;0.50;;;6.20;99.90;;;;;;5085651;28;20055;-49
2020/12/02 06:37:34;;;;;;;1.00;0.20;;;6.30;99.90;;;;;;5086875;28;20089;-49
2020/12/02 06:40:00;;;;;;;3.83;0.20;;;6.30;99.90;;;;;;5077395;28;20469;-48
2020/12/02 06:42:34;;;;;;;2.72;0.40;;;6.30;99.90;;;;;;5087004;28;20048;-49
2020/12/02 06:45:09;;;;;;;2.28;0.20;;;6.30;99.90;;;;;;5081569;28;20052;-49
2020/12/02 06:47:46;;;;;;;1.25;0.30;;;6.20;99.90;;;;;;5089514;28;20052;-49
2020/12/02 06:50:13;;;;;;;4.72;0.28;;;6.20;99.90;;;;;;5086220;28;20052;-49
2020/12/02 06:52:40;;;;;;;1.88;0.30;;;6.20;99.90;;;;;;5088765;28;20049;-48
2020/12/02 06:55:23;;;;;;;7.22;2.72;;;6.20;99.90;;;;;;5087723;28;20048;-49
2020/12/02 06:58:02;;;;;;;2.85;1.42;;;6.20;99.90;;;;;;5082511;28;20102;-51
2020/12/02 07:00:39;;;;;;;1.73;0.28;;;6.20;99.90;;;;;;5088514;28;20093;-49
2020/12/02 07:03:40;;;;;;;3.70;0.40;;;6.20;99.90;;;;;;5085691;28;20052;-48
2020/12/02 07:06:22;;;;;;;1.58;0.40;;;6.20;99.90;;;;;;5080197;28;20062;-48
2020/12/02 07:09:03;;;;;;;4.03;1.20;;;6.10;99.90;;;;;;5072945;28;20465;-49
2020/12/02 07:11:32;;;;;;;6.97;2.42;;;6.10;99.90;;;;;;5083857;28;20052;-49
2020/12/02 07:14:19;;;;;;;2.83;0.60;;;6.20;99.90;;;;;;5082537;28;20481;-48
2020/12/02 07:16:46;;;;;;;2.90;0.60;;;6.10;99.90;;;;;;5086556;28;20094;-49
2020/12/02 07:19:15;;;;;;;1.13;0.40;;;6.10;99.90;;;;;;5083482;28;20114;-49
2020/12/02 07:21:51;;;;;;;1.42;0.50;;;6.10;99.90;;;;;;5090374;28;20119;-49
2020/12/02 07:24:22;;;;;;;0.90;0.40;;;6.20;99.90;;;;;;5082791;28;20059;-49
2020/12/02 07:26:50;;;;;;;1.38;0.50;;;6.10;99.90;;;;;;5077505;28;20048;-49
2020/12/02 07:29:19;;;;;;;3.63;0.60;;;6.00;99.90;;;;;;5082790;28;20457;-49
2020/12/02 07:31:53;;;;;;;1.33;0.60;;;5.90;99.90;;;;;;5077224;28;20137;-48
2020/12/02 07:34:24;;;;;;;2.20;0.60;;;5.90;99.90;;;;;;5088238;28;20048;-49
2020/12/02 07:37:00;;;;;;;1.27;0.50;;;5.80;99.90;;;;;;5081970;28;20048;-48
2020/12/02 07:39:28;;;;;;;1.15;0.30;;;5.80;99.90;;;;;;5080609;28;20110;-48
2020/12/02 07:42:17;;;;;;;2.80;0.30;;;5.70;99.90;;;;;;5083548;28;20048;-49
2020/12/02 07:45:13;;;;;;;0.32;0.20;;;5.50;99.90;;;;;;5088091;28;20413;-50
2020/12/02 07:47:51;;;;;;;1.58;0.25;;;5.60;99.90;;;;;;5068417;28;20094;-49
2020/12/02 07:50:43;;;;;;;0.43;0.22;;;5.60;99.90;;;;;;5080842;28;20097;-48
2020/12/02 07:53:30;;;;;;;0.47;0.20;;;5.60;99.90;;;;;;5075724;28;20044;-48
2020/12/02 07:55:57;;;;;;;1.30;0.30;;;5.60;99.90;;;;;;5072915;28;20484;-49
2020/12/02 07:58:37;;;;;;;2.33;0.30;;;5.50;99.90;;;;;;5081917;28;20051;-49
2020/12/02 08:01:32;;;;;;;3.30;0.20;;;5.50;99.90;;;;;;5086840;28;20137;-50
2020/12/02 08:04:21;;;;;;;1.27;0.85;;;5.50;99.90;;;;;;5073417;28;20048;-48
2020/12/02 08:07:12;;;;;;;1.95;0.40;;;5.40;99.90;;;;;;5080772;28;20102;-49
2020/12/02 08:09:42;;;;;;;1.98;0.30;;;5.50;99.90;;;;;;5087659;28;20076;-49
2020/12/02 08:12:26;;;;;;;2.00;0.20;;;5.50;99.90;;;;;;5086262;28;20056;-49
2020/12/02 08:15:06;;;;;;;1.92;0.20;;;5.50;99.90;;;;;;5090565;28;20044;-49
2020/12/02 08:17:33;;;;;;;1.75;0.20;;;5.50;99.90;;;;;;5084727;28;20048;-48
2020/12/02 08:20:18;;;;;;;1.27;0.30;;;5.50;99.90;;;;;;5084010;28;20129;-48
2020/12/02 08:22:51;;;;;;;0.50;0.20;;;5.50;99.90;;;;;;5093361;28;20063;-49
2020/12/02 08:25:23;;;;;;;0.40;0.30;;;5.50;99.90;;;;;;5088093;28;20101;-49
2020/12/02 08:27:53;;;;;;;1.73;0.40;;;5.40;99.90;;;;;;5088340;28;20427;-48
2020/12/02 08:30:22;;;;;;;0.68;0.45;;;5.40;99.90;;;;;;5082420;28;20098;-50
2020/12/02 08:33:08;;;;;;;1.45;0.60;;;5.30;99.90;;;;;;5084060;28;20047;-51
2020/12/02 08:35:40;;;;;;;2.35;1.00;;;5.30;99.90;;;;;;5092457;28;20040;-52
2020/12/02 08:38:27;;;;;;;2.10;1.10;;;5.40;99.90;;;;;;5088861;28;20506;-48
2020/12/02 08:40:55;;;;;;;4.72;1.70;;;5.50;99.90;;;;;;5087090;28;20044;-49
2020/12/02 08:43:28;;;;;;;2.47;1.00;;;5.50;99.90;;;;;;5080684;28;20477;-49
2020/12/02 08:46:14;;;;;;;4.03;0.93;;;5.50;99.90;;;;;;5083804;28;20044;-48
2020/12/02 08:48:42;;;;;;;1.95;0.90;;;5.50;99.90;;;;;;5076943;28;20054;-48
2020/12/02 08:51:12;;;;;;;1.33;0.90;;;5.50;99.90;;;;;;5078431;28;20048;-49
2020/12/02 08:53:39;;;;;;;0.90;0.80;;;5.60;99.90;;;;;;5082015;28;20428;-48
2020/12/02 08:56:23;;;;;;;0.93;0.85;;;5.60;99.90;;;;;;5087415;28;20051;-48
2020/12/02 08:58:50;;;;;;;3.15;1.02;;;5.60;99.90;;;;;;5086061;28;20048;-49
2020/12/02 09:01:16;;;;;;;1.52;1.00;;;5.70;99.90;;;;;;5090877;28;20644;-49
2020/12/02 09:03:42;;;;;;;5.10;1.52;;;5.60;99.90;;;;;;5090172;28;20679;-49
2020/12/02 09:06:14;;;;;;;9.02;3.72;;;5.50;99.90;;;;;;5082895;28;20048;-48
2020/12/02 09:08:41;;;;;;;8.50;4.03;;;5.50;99.90;;;;;;5077351;28;20553;-49
2020/12/02 09:11:07;;;;;;;1.23;0.30;;;5.40;99.90;;;;;;5078944;28;20052;-48
2020/12/02 09:13:34;;;;;;;0.70;0.50;;;5.50;99.90;;;;;;5091547;28;20048;-49
2020/12/02 09:16:00;;;;;;;0.95;0.60;;;5.60;99.90;;;;;;5084418;28;20052;-48
2020/12/02 09:18:27;;;;;;;0.70;0.50;;;5.60;99.90;;;;;;5090667;28;20052;-48
2020/12/02 09:20:53;;;;;;;1.70;0.47;;;5.70;99.90;;;;;;5085671;28;20040;-48
2020/12/02 09:23:20;;;;;;;2.47;1.65;;;5.80;99.90;;;;;;5089798;28;20101;-48
2020/12/02 09:25:46;;;;;;;6.07;3.13;;;5.80;99.90;;;;;;5090792;28;20063;-48
2020/12/02 09:28:13;;;;;;;5.00;3.03;;;5.90;99.90;;;;;;5087577;28;20054;-48
2020/12/02 09:30:39;;;;;;;3.05;1.50;;;5.90;99.90;;;;;;5083938;28;20048;-48
2020/12/02 09:33:06;;;;;;;2.50;1.40;;;5.90;99.90;;;;;;5081930;28;21532;-49
2020/12/02 09:35:33;;;;;;;5.00;1.30;;;5.90;99.90;;;;;;5089799;28;20049;-49
2020/12/02 09:37:59;;;;;;;3.17;1.95;;;6.00;99.90;;;;;;5085050;28;20101;-49
2020/12/02 09:40:26;;;;;;;3.65;2.15;;;6.00;99.90;;;;;;5087604;28;20040;-48
2020/12/02 09:43:39;;;;;;;4.55;3.38;;;6.00;99.90;;;;;;5089880;28;20044;-50
2020/12/02 09:46:13;;;;;;;2.25;1.10;;;6.00;99.90;;;;;;5086509;28;20052;-49
2020/12/02 09:48:40;;;;;;;2.60;0.80;;;6.00;99.90;;;;;;5089663;28;20053;-48
2020/12/02 09:51:25;;;;;;;12.68;6.88;;;6.00;99.90;;;;;;5086733;28;20056;-48
2020/12/02 09:53:53;;;;;;;18.00;10.02;;;6.10;99.90;;;;;;5085660;28;20101;-48
2020/12/02 09:56:20;;;;;;;3.17;1.35;;;6.10;99.90;;;;;;5079824;28;20055;-49
2020/12/02 09:58:47;;;;;;;5.63;0.40;;;6.10;99.90;;;;;;5084821;28;20059;-48
2020/12/02 10:01:27;;;;;;;3.05;0.40;;;6.20;99.90;;;;;;5088751;28;20101;-48
2020/12/02 10:04:20;;;;;;;2.25;0.38;;;6.30;99.90;;;;;;5087465;28;20040;-49
2020/12/02 10:07:07;;;;;;;4.50;1.13;;;6.30;99.90;;;;;;5081814;28;20110;-49
2020/12/02 10:09:48;;;;;;;5.75;0.70;;;6.40;99.90;;;;;;5078476;28;20098;-48
2020/12/02 10:12:26;;;;;;;4.10;0.70;;;6.50;99.90;;;;;;5080392;28;20060;-49
2020/12/02 10:15:02;;;;;;;3.05;0.57;;;6.60;99.90;;;;;;5077429;28;20117;-49
2020/12/02 10:17:49;;;;;;;2.45;0.55;;;6.70;99.90;;;;;;5087050;28;20052;-49
2020/12/02 10:20:18;;;;;;;4.10;0.60;;;6.80;99.90;;;;;;5086263;28;20052;-48
2020/12/02 10:23:08;;;;;;;4.53;0.60;;;6.80;99.90;;;;;;5075650;28;20048;-48
2020/12/02 10:26:03;;;;;;;4.60;1.15;;;6.90;99.90;;;;;;5086100;28;20310;-49
2020/12/02 10:28:42;;;;;;;3.28;0.50;;;7.00;99.90;;;;;;5087287;28;20081;-48
2020/12/02 10:31:22;;;;;;;4.55;0.55;;;7.10;99.90;;;;;;5089860;28;20055;-49
2020/12/02 10:34:02;;;;;;;8.77;0.70;;;7.10;99.90;;;;;;5084296;28;20499;-48
2020/12/02 10:36:36;;;;;;;6.82;0.90;;;7.20;99.90;;;;;;5088446;28;20044;-49
2020/12/02 10:39:08;;;;;;;8.65;1.40;;;7.20;99.90;;;;;;5087861;28;20105;-49
2020/12/02 10:42:02;;;;;;;12.32;2.55;;;7.30;99.90;;;;;;5083917;28;20044;-49
2020/12/02 10:45:02;;;;;;;9.00;0.90;;;7.30;99.90;;;;;;5081172;28;20408;-48
2020/12/02 10:48:07;;;;;;;6.68;1.23;;;7.40;99.90;;;;;;5075266;28;20052;-49
2020/12/02 10:50:35;;;;;;;12.60;4.50;;;7.40;99.90;;;;;;5080418;28;20044;-48
2020/12/02 10:53:06;;;;;;;15.68;3.63;;;7.50;99.90;;;;;;5071893;28;20049;-48
2020/12/02 10:55:35;;;;;;;12.38;5.65;;;7.50;99.90;;;;;;5081068;28;20056;-49
2020/12/02 10:58:09;;;;;;;11.27;1.35;;;7.50;99.90;;;;;;5075392;28;20062;-48
2020/12/02 11:00:36;;;;;;;7.57;2.28;;;7.60;99.90;;;;;;5073019;28;20057;-49
2020/12/02 11:03:30;;;;;;;23.38;6.97;;;7.70;99.90;;;;;;5081621;28;20484;-49
2020/12/02 11:06:18;;;;;;;24.23;7.93;;;7.70;99.90;;;;;;5071547;28;20106;-49
2020/12/02 11:08:44;;;;;;;13.55;4.82;;;7.70;99.90;;;;;;5079463;28;20488;-49
2020/12/02 11:11:46;;;;;;;8.48;2.33;;;7.80;99.90;;;;;;5082755;28;20068;-49
2020/12/02 11:14:37;;;;;;;5.53;1.73;;;7.80;99.90;;;;;;5068294;28;20093;-48
2020/12/02 11:17:23;;;;;;;10.60;1.10;;;7.90;99.90;;;;;;5084799;28;20392;-49
2020/12/02 11:19:52;;;;;;;6.82;0.60;;;7.90;99.90;;;;;;5077699;28;20048;-51
2020/12/02 11:22:37;;;;;;;7.50;0.80;;;7.90;99.90;;;;;;5079956;28;20102;-49
2020/12/02 11:25:16;;;;;;;11.68;2.15;;;8.00;99.90;;;;;;5078957;28;20048;-50
2020/12/02 11:27:44;;;;;;;4.65;0.50;;;8.00;99.90;;;;;;5070806;28;20048;-49
2020/12/02 11:30:34;;;;;;;9.68;0.70;;;8.00;99.90;;;;;;5079558;28;20041;-49
2020/12/02 11:33:16;;;;;;;4.10;0.60;;;8.00;99.90;;;;;;5076096;28;20048;-50
2020/12/02 11:36:04;;;;;;;5.80;0.70;;;8.10;99.90;;;;;;5075619;28;20048;-49
2020/12/02 11:38:57;;;;;;;8.95;0.63;;;8.10;99.90;;;;;;5080733;28;20519;-49
2020/12/02 11:41:47;;;;;;;7.97;0.90;;;8.10;99.90;;;;;;5079075;28;20151;-49
2020/12/02 11:44:26;;;;;;;8.77;1.08;;;8.10;99.90;;;;;;5074028;28;20040;-49
2020/12/02 11:47:23;;;;;;;9.52;0.43;;;8.20;99.90;;;;;;5084897;28;20052;-49
2020/12/02 11:50:06;;;;;;;8.02;0.88;;;8.20;99.90;;;;;;5079390;28;20060;-50
2020/12/02 11:52:50;;;;;;;5.80;0.77;;;8.20;99.90;;;;;;5088645;28;20052;-50
2020/12/02 11:55:29;;;;;;;6.03;0.65;;;8.20;99.90;;;;;;5086642;28;20427;-49
2020/12/02 11:57:58;;;;;;;4.97;0.32;;;8.20;99.90;;;;;;5081408;28;20084;-50
2020/12/02 12:00:24;;;;;;;4.15;0.50;;;8.10;99.90;;;;;;5081471;28;20443;-50
2020/12/02 12:03:22;;;;;;;4.40;0.75;;;8.10;99.90;;;;;;5088696;28;20427;-49
2020/12/02 12:05:57;;;;;;;3.65;0.20;;;7.70;99.90;;;;;;5086592;28;20403;-51
2020/12/02 12:08:34;;;;;;;2.33;0.20;;;7.10;99.90;;;;;;5086919;28;20496;-50
2020/12/02 12:11:05;;;;;;;4.72;0.30;;;7.00;99.90;;;;;;5076067;28;20428;-49
2020/12/02 12:13:47;;;;;;;1.73;0.38;;;7.00;99.90;;;;;;5083983;28;20052;-50
2020/12/02 12:16:54;;;;;;;1.02;0.20;;;7.10;99.90;;;;;;5089085;28;20415;-50
2020/12/02 12:19:43;;;;;;;2.00;0.50;;;7.00;99.90;;;;;;5086880;28;20041;-49
2020/12/02 12:22:38;;;;;;;1.83;0.30;;;7.10;99.90;;;;;;5082513;28;20052;-50
2020/12/02 12:25:24;;;;;;;1.52;0.40;;;7.10;99.90;;;;;;5089371;28;20049;-50
2020/12/02 12:27:57;;;;;;;1.35;0.22;;;7.10;99.90;;;;;;5089558;28;20048;-49
2020/12/02 12:30:23;;;;;;;1.60;0.30;;;7.10;99.90;;;;;;5085753;28;20043;-50
2020/12/02 12:32:59;;;;;;;3.35;0.50;;;7.10;99.90;;;;;;5081387;28;20566;-49
2020/12/02 12:35:29;;;;;;;4.22;0.57;;;7.20;99.90;;;;;;5084196;28;20036;-50
2020/12/02 12:38:37;;;;;;;5.22;0.70;;;7.30;99.90;;;;;;5089691;28;20052;-50
2020/12/02 12:41:14;;;;;;;4.00;0.80;;;7.30;99.90;;;;;;5068478;28;20040;-51
2020/12/02 12:44:04;;;;;;;3.22;0.50;;;7.30;99.90;;;;;;5065529;28;20124;-50
2020/12/02 12:47:07;;;;;;;6.03;0.52;;;7.30;99.90;;;;;;5068915;28;20055;-51
2020/12/02 12:49:34;;;;;;;5.70;0.70;;;7.40;99.90;;;;;;5054139;28;20461;-49
2020/12/02 12:52:02;;;;;;;6.22;0.70;;;7.40;99.90;;;;;;5061277;28;20106;-50
2020/12/02 12:54:29;;;;;;;7.72;0.65;;;7.40;99.90;;;;;;5067431;28;20489;-51
2020/12/02 12:56:57;;;;;;;7.40;0.60;;;7.30;99.90;;;;;;5063560;28;20044;-51
2020/12/02 12:59:25;;;;;;;2.95;0.50;;;7.30;99.90;;;;;;5067909;28;20442;-50
2020/12/02 13:01:56;;;;;;;2.53;0.98;;;7.40;99.90;;;;;;5064616;28;20421;-50
2020/12/02 13:04:24;;;;;;;6.40;0.80;;;7.30;99.90;;;;;;5058595;28;20044;-50
2020/12/02 13:07:11;;;;;;;2.25;0.20;;;7.30;99.90;;;;;;5065924;28;20060;-50
2020/12/02 13:09:56;;;;;;;1.80;0.30;;;7.30;99.90;;;;;;5063402;28;20060;-50
2020/12/02 13:12:33;;;;;;;4.28;0.65;;;7.20;99.90;;;;;;5051746;28;20057;-50
2020/12/02 13:15:08;;;;;;;5.65;0.60;;;7.10;99.90;;;;;;5069371;28;20052;-51
2020/12/02 13:18:10;;;;;;;1.88;0.25;;;7.10;99.90;;;;;;5077006;28;20481;-50
2020/12/02 13:21:11;;;;;;;3.97;0.30;;;7.10;99.90;;;;;;5073519;28;20376;-50
2020/12/02 13:23:44;;;;;;;6.68;0.50;;;7.10;99.90;;;;;;5068328;28;20036;-51
2020/12/02 13:26:18;;;;;;;5.65;2.42;;;7.10;99.90;;;;;;5083556;28;20488;-52
2020/12/02 13:28:51;;;;;;;3.45;0.80;;;7.10;99.90;;;;;;5091265;28;20059;-50
2020/12/02 13:31:21;;;;;;;2.80;1.23;;;7.10;99.90;;;;;;5086352;28;20060;-50
2020/12/02 13:33:50;;;;;;;2.30;0.85;;;7.10;99.90;;;;;;5083408;28;20056;-50
2020/12/02 13:36:22;;;;;;;0.98;0.30;;;7.10;99.90;;;;;;5078861;28;20067;-51